createdAt,value
2019-03-06T00:00:38.173Z,4.30
2019-03-06T00:03:06.775Z,4.30
2019-03-06T00:05:35.989Z,4.40
2019-03-06T00:08:04.697Z,4.40
2019-03-06T00:10:33.516Z,4.40
2019-03-06T00:13:02.053Z,4.40
2019-03-06T00:15:30.515Z,4.40
2019-03-06T00:17:59.073Z,4.40
2019-03-06T00:20:27.531Z,4.40
2019-03-06T00:22:56.061Z,4.30
2019-03-06T00:25:24.626Z,4.40
2019-03-06T00:27:53.089Z,4.40
2019-03-06T00:30:21.996Z,4.40
2019-03-06T00:32:50.458Z,4.40
2019-03-06T00:35:29.649Z,4.40
2019-03-06T00:37:58.119Z,4.30
2019-03-06T00:40:46.347Z,4.30
2019-03-06T00:43:14.947Z,4.30
2019-03-06T00:45:43.491Z,4.30
2019-03-06T00:48:12.026Z,4.30
2019-03-06T00:50:40.586Z,4.30
2019-03-06T00:53:09.111Z,4.30
2019-03-06T00:55:37.661Z,4.20
2019-03-06T00:58:06.198Z,4.20
2019-03-06T01:00:34.735Z,4.20
2019-03-06T01:03:03.774Z,4.20
2019-03-06T01:05:32.303Z,4.20
2019-03-06T01:08:00.853Z,4.20
2019-03-06T01:10:29.387Z,4.20
2019-03-06T01:12:57.992Z,4.20
2019-03-06T01:15:26.502Z,4.20
2019-03-06T01:17:55.056Z,4.20
2019-03-06T01:20:23.519Z,4.20
2019-03-06T01:22:52.037Z,4.20
2019-03-06T01:25:21.641Z,4.20
2019-03-06T01:27:50.219Z,4.20
2019-03-06T01:30:26.098Z,4.20
2019-03-06T01:33:04.995Z,4.20
2019-03-06T01:35:41.112Z,4.20
2019-03-06T01:38:11.626Z,4.20
2019-03-06T01:40:44.629Z,4.20
2019-03-06T01:43:17.588Z,4.20
2019-03-06T01:45:46.228Z,4.30
2019-03-06T01:48:15.164Z,4.30
2019-03-06T01:50:43.683Z,4.30
2019-03-06T01:53:12.218Z,4.30
2019-03-06T01:55:40.829Z,4.30
2019-03-06T01:58:10.233Z,4.30
2019-03-06T02:00:39.560Z,4.30
2019-03-06T02:03:08.170Z,4.40
2019-03-06T02:05:36.781Z,4.40
2019-03-06T02:08:06.366Z,4.40
2019-03-06T02:10:34.966Z,4.40
2019-03-06T02:13:04.434Z,4.40
2019-03-06T02:15:32.924Z,4.40
2019-03-06T02:18:01.519Z,4.40
2019-03-06T02:20:30.003Z,4.50
2019-03-06T02:22:58.570Z,4.50
2019-03-06T02:25:27.487Z,4.50
2019-03-06T02:27:55.933Z,4.50
2019-03-06T02:30:25.816Z,4.40
2019-03-06T02:32:54.453Z,4.50
2019-03-06T02:35:22.983Z,4.50
2019-03-06T02:37:51.441Z,4.50
2019-03-06T02:40:19.911Z,4.50
2019-03-06T02:42:48.473Z,4.50
2019-03-06T02:45:18.231Z,4.50
2019-03-06T02:47:46.813Z,4.50
2019-03-06T02:50:16.865Z,4.50
2019-03-06T02:52:45.468Z,4.50
2019-03-06T02:55:16.050Z,4.50
2019-03-06T02:57:46.696Z,4.50
2019-03-06T03:00:35.407Z,4.50
2019-03-06T03:03:12.361Z,4.50
2019-03-06T03:05:57.650Z,4.50
2019-03-06T03:08:26.268Z,4.50
2019-03-06T03:10:54.793Z,4.50
2019-03-06T03:13:23.242Z,4.50
2019-03-06T03:15:51.703Z,4.50
2019-03-06T03:18:20.241Z,4.50
2019-03-06T03:20:48.773Z,4.60
2019-03-06T03:23:17.230Z,4.60
2019-03-06T03:25:45.695Z,4.60
2019-03-06T03:28:14.162Z,4.60
2019-03-06T03:30:42.707Z,4.60
2019-03-06T03:33:11.235Z,4.60
2019-03-06T03:35:40.167Z,4.60
2019-03-06T03:38:08.672Z,4.60
2019-03-06T03:40:37.203Z,4.60
2019-03-06T03:43:06.072Z,4.60
2019-03-06T03:45:34.642Z,4.70
2019-03-06T03:48:03.143Z,4.70
2019-03-06T03:50:31.679Z,4.70
2019-03-06T03:53:00.205Z,4.70
2019-03-06T03:55:28.681Z,4.70
2019-03-06T03:57:57.212Z,4.70
2019-03-06T04:00:26.140Z,4.70
2019-03-06T04:02:54.960Z,4.70
2019-03-06T04:05:23.674Z,4.70
2019-03-06T04:07:52.222Z,4.70
2019-03-06T04:10:20.751Z,4.70
2019-03-06T04:12:49.320Z,4.70
2019-03-06T04:15:18.542Z,4.70
2019-03-06T04:17:47.153Z,4.70
2019-03-06T04:20:17.126Z,4.70
2019-03-06T04:22:45.763Z,4.70
2019-03-06T04:25:14.717Z,4.70
2019-03-06T04:27:43.320Z,4.70
2019-03-06T04:30:17.315Z,4.70
2019-03-06T04:32:45.875Z,4.70
2019-03-06T04:35:15.056Z,4.70
2019-03-06T04:37:43.593Z,4.70
2019-03-06T04:40:13.677Z,4.70
2019-03-06T04:42:42.693Z,4.70
2019-03-06T04:45:15.948Z,4.70
2019-03-06T04:47:44.944Z,4.70
2019-03-06T04:50:14.314Z,4.70
2019-03-06T04:52:43.547Z,4.70
2019-03-06T04:55:14.161Z,4.70
2019-03-06T04:57:42.753Z,4.70
2019-03-06T05:00:18.825Z,4.70
2019-03-06T05:02:47.323Z,4.70
2019-03-06T05:05:15.843Z,4.70
2019-03-06T05:07:44.321Z,4.70
2019-03-06T05:10:14.434Z,4.60
2019-03-06T05:12:42.960Z,4.60
2019-03-06T05:15:13.339Z,4.60
2019-03-06T05:17:58.792Z,4.60
2019-03-06T05:20:27.237Z,4.60
2019-03-06T05:22:55.782Z,4.60
2019-03-06T05:25:24.310Z,4.50
2019-03-06T05:27:52.753Z,4.50
2019-03-06T05:30:22.914Z,4.50
2019-03-06T05:33:31.823Z,4.50
2019-03-06T05:36:23.185Z,4.50
2019-03-06T05:39:06.914Z,4.50
2019-03-06T05:41:35.423Z,4.40
2019-03-06T05:44:04.685Z,4.40
2019-03-06T05:46:33.164Z,4.40
2019-03-06T05:49:01.678Z,4.30
2019-03-06T05:51:30.209Z,4.30
2019-03-06T05:53:58.814Z,4.30
2019-03-06T05:56:27.294Z,4.30
2019-03-06T05:58:55.786Z,4.30
2019-03-06T06:01:24.242Z,4.30
2019-03-06T06:03:52.853Z,4.30
2019-03-06T06:06:21.362Z,4.40
2019-03-06T06:08:49.879Z,4.40
2019-03-06T06:11:18.486Z,4.40
2019-03-06T06:13:47.027Z,4.40
2019-03-06T06:16:15.491Z,4.40
2019-03-06T06:18:44.043Z,4.40
2019-03-06T06:21:14.184Z,4.40
2019-03-06T06:23:44.289Z,4.40
2019-03-06T06:26:12.828Z,4.40
2019-03-06T06:28:41.359Z,4.40
2019-03-06T06:31:09.869Z,4.40
2019-03-06T06:33:38.371Z,4.40
2019-03-06T06:36:06.899Z,4.50
2019-03-06T06:38:37.349Z,4.50
2019-03-06T06:41:05.653Z,4.50
2019-03-06T06:43:34.130Z,4.50
2019-03-06T06:46:02.592Z,4.50
2019-03-06T06:48:31.137Z,4.50
2019-03-06T06:51:23.832Z,4.60
2019-03-06T06:53:57.896Z,4.60
2019-03-06T06:56:48.817Z,4.60
2019-03-06T06:59:32.123Z,4.60
2019-03-06T07:02:38.178Z,4.60
2019-03-06T07:05:26.093Z,4.70
2019-03-06T07:08:01.920Z,4.70
2019-03-06T07:10:44.234Z,4.70
2019-03-06T07:13:26.588Z,4.70
2019-03-06T07:15:59.732Z,4.70
2019-03-06T07:18:32.705Z,4.70
2019-03-06T07:21:21.055Z,4.70
2019-03-06T07:23:51.536Z,4.70
2019-03-06T07:26:27.578Z,4.70
2019-03-06T07:29:09.475Z,4.70
2019-03-06T07:31:51.769Z,4.70
2019-03-06T07:34:24.589Z,4.70
2019-03-06T07:36:54.763Z,4.70
2019-03-06T07:39:24.868Z,4.70
2019-03-06T07:42:10.328Z,4.70
2019-03-06T07:44:56.506Z,4.70
2019-03-06T07:47:32.155Z,4.80
2019-03-06T07:50:02.303Z,4.80
2019-03-06T07:52:32.891Z,4.80
2019-03-06T07:55:08.893Z,4.90
2019-03-06T07:57:57.032Z,4.90
2019-03-06T08:00:25.656Z,4.90
2019-03-06T08:03:03.357Z,4.90
2019-03-06T08:05:31.861Z,5.00
2019-03-06T08:08:00.407Z,5.10
2019-03-06T08:10:30.555Z,5.10
2019-03-06T08:13:00.843Z,5.20
2019-03-06T08:15:46.062Z,5.30
2019-03-06T08:18:16.297Z,5.30
2019-03-06T08:20:49.073Z,5.30
2019-03-06T08:23:19.745Z,5.30
2019-03-06T08:25:49.841Z,5.30
2019-03-06T08:28:18.380Z,5.30
2019-03-06T08:30:57.418Z,5.40
2019-03-06T08:33:26.372Z,5.50
2019-03-06T08:35:54.941Z,5.50
2019-03-06T08:38:23.465Z,5.60
2019-03-06T08:40:52.135Z,5.70
2019-03-06T08:43:20.742Z,5.80
2019-03-06T08:45:57.130Z,5.80
2019-03-06T08:48:29.891Z,5.90
2019-03-06T08:51:05.692Z,5.90
2019-03-06T08:53:38.387Z,5.90
2019-03-06T08:56:08.628Z,6.00
2019-03-06T08:58:38.806Z,6.00
2019-03-06T09:01:36.725Z,6.00
2019-03-06T09:04:24.201Z,6.00
2019-03-06T09:06:57.178Z,6.00
2019-03-06T09:09:43.814Z,6.00
2019-03-06T09:12:16.952Z,6.10
2019-03-06T09:14:59.219Z,6.10
2019-03-06T09:17:29.466Z,6.10
2019-03-06T09:20:02.231Z,6.10
2019-03-06T09:22:32.395Z,6.10
2019-03-06T09:25:27.957Z,6.10
2019-03-06T09:28:06.666Z,6.10
2019-03-06T09:30:54.779Z,6.00
2019-03-06T09:33:30.608Z,6.00
2019-03-06T09:36:00.733Z,6.00
2019-03-06T09:38:39.972Z,6.00
2019-03-06T09:41:22.719Z,6.10
2019-03-06T09:43:55.702Z,6.10
2019-03-06T09:46:37.764Z,6.10
2019-03-06T09:49:11.750Z,6.10
2019-03-06T09:51:47.698Z,6.20
2019-03-06T09:54:35.698Z,6.20
2019-03-06T09:57:05.947Z,6.20
2019-03-06T09:59:41.882Z,6.20
2019-03-06T10:02:23.780Z,6.20
2019-03-06T10:05:11.768Z,6.20
2019-03-06T10:07:42.023Z,6.20
2019-03-06T10:10:18.341Z,6.30
2019-03-06T10:13:03.581Z,6.30
2019-03-06T10:15:39.412Z,6.40
2019-03-06T10:18:09.598Z,6.50
2019-03-06T10:20:38.123Z,6.50
2019-03-06T10:23:08.334Z,6.50
2019-03-06T10:25:36.862Z,6.60
2019-03-06T10:28:06.866Z,6.60
2019-03-06T10:30:35.508Z,6.70
2019-03-06T10:33:04.226Z,6.70
2019-03-06T10:35:32.820Z,6.80
2019-03-06T10:38:01.676Z,6.90
2019-03-06T10:40:30.237Z,7.00
2019-03-06T10:42:58.976Z,7.00
2019-03-06T10:45:27.510Z,7.10
2019-03-06T10:47:59.265Z,7.10
2019-03-06T10:50:27.956Z,7.10
2019-03-06T10:52:58.403Z,7.10
2019-03-06T10:55:26.933Z,7.10
2019-03-06T10:57:55.825Z,7.10
2019-03-06T11:00:48.892Z,7.20
2019-03-06T11:03:17.574Z,7.30
2019-03-06T11:05:47.928Z,7.30
2019-03-06T11:08:17.894Z,7.40
2019-03-06T11:10:46.496Z,7.50
2019-03-06T11:13:15.462Z,7.60
2019-03-06T11:15:44.383Z,7.70
2019-03-06T11:18:13.252Z,7.80
2019-03-06T11:20:42.383Z,7.70
2019-03-06T11:23:12.863Z,7.70
2019-03-06T11:25:42.430Z,7.70
2019-03-06T11:28:12.912Z,7.70
2019-03-06T11:30:53.313Z,7.70
2019-03-06T11:33:23.873Z,7.70
2019-03-06T11:35:59.730Z,7.60
2019-03-06T11:38:29.498Z,7.50
2019-03-06T11:40:58.705Z,7.40
2019-03-06T11:43:27.466Z,7.40
2019-03-06T11:45:56.007Z,7.40
2019-03-06T11:48:24.873Z,7.30
2019-03-06T11:50:53.399Z,7.30
2019-03-06T11:53:22.581Z,7.40
2019-03-06T11:55:51.242Z,7.50
2019-03-06T11:58:20.844Z,7.70
2019-03-06T12:00:50.019Z,8.20
2019-03-06T12:03:21.275Z,8.70
2019-03-06T12:05:50.970Z,9.40
2019-03-06T12:08:20.732Z,10.00
2019-03-06T12:10:50.497Z,10.70
2019-03-06T12:13:19.683Z,11.30
2019-03-06T12:15:52.336Z,11.60
2019-03-06T12:18:23.515Z,11.80
2019-03-06T12:20:53.738Z,11.80
2019-03-06T12:23:22.272Z,11.80
2019-03-06T12:25:51.071Z,11.90
2019-03-06T12:28:19.612Z,11.90
2019-03-06T12:30:48.291Z,12.00
2019-03-06T12:33:23.009Z,12.10
2019-03-06T12:35:51.625Z,12.20
2019-03-06T12:38:20.489Z,12.60
2019-03-06T12:40:49.346Z,13.20
2019-03-06T12:43:17.885Z,13.80
2019-03-06T12:46:06.053Z,14.30
2019-03-06T12:48:35.034Z,14.70
2019-03-06T12:51:04.455Z,15.10
2019-03-06T12:53:32.982Z,15.20
2019-03-06T12:56:02.127Z,15.40
2019-03-06T12:58:30.737Z,15.50
2019-03-06T13:00:59.296Z,15.60
2019-03-06T13:03:27.812Z,15.50
2019-03-06T13:05:56.342Z,15.30
2019-03-06T13:08:24.882Z,15.20
2019-03-06T13:10:53.420Z,15.30
2019-03-06T13:13:21.995Z,15.30
2019-03-06T13:15:50.902Z,15.40
2019-03-06T13:18:19.443Z,15.40
2019-03-06T13:20:47.974Z,15.40
2019-03-06T13:23:16.587Z,15.20
2019-03-06T13:25:45.108Z,15.00
2019-03-06T13:28:13.758Z,14.90
2019-03-06T13:30:42.747Z,14.80
2019-03-06T13:33:15.663Z,14.90
2019-03-06T13:35:44.207Z,15.10
2019-03-06T13:38:20.411Z,15.10
2019-03-06T13:40:49.058Z,14.90
2019-03-06T13:43:17.587Z,14.50
2019-03-06T13:45:46.109Z,14.20
2019-03-06T13:48:15.565Z,14.00
2019-03-06T13:50:44.087Z,13.90
2019-03-06T13:53:20.058Z,13.80
2019-03-06T13:55:42.998Z,13.60
2019-03-06T13:58:11.541Z,13.40
2019-03-06T14:00:40.090Z,13.30
2019-03-06T14:03:08.864Z,13.20
2019-03-06T14:05:37.487Z,13.00
2019-03-06T14:08:06.619Z,13.00
2019-03-06T14:10:35.633Z,12.90
2019-03-06T14:13:04.518Z,12.90
2019-03-06T14:15:33.190Z,13.00
2019-03-06T14:18:01.810Z,13.20
2019-03-06T14:20:30.357Z,13.20
2019-03-06T14:22:58.955Z,13.10
2019-03-06T14:25:28.019Z,12.90
2019-03-06T14:27:56.559Z,12.70
2019-03-06T14:30:29.933Z,12.50
2019-03-06T14:32:58.515Z,12.40
2019-03-06T14:35:28.601Z,12.30
2019-03-06T14:37:57.241Z,12.30
2019-03-06T14:40:33.293Z,12.20
2019-03-06T14:43:03.603Z,12.20
2019-03-06T14:45:32.189Z,12.30
2019-03-06T14:48:00.738Z,12.40
2019-03-06T14:50:29.427Z,12.50
2019-03-06T14:52:58.351Z,12.50
2019-03-06T14:55:26.944Z,12.30
2019-03-06T14:57:55.514Z,12.20
2019-03-06T15:00:24.324Z,12.10
2019-03-06T15:02:52.851Z,12.10
2019-03-06T15:05:22.017Z,12.10
2019-03-06T15:07:50.662Z,12.00
2019-03-06T15:10:19.936Z,12.00
2019-03-06T15:12:48.464Z,12.00
2019-03-06T15:15:20.697Z,11.90
2019-03-06T15:17:49.395Z,11.90
2019-03-06T15:20:23.839Z,11.90
2019-03-06T15:22:54.114Z,11.80
2019-03-06T15:25:41.984Z,11.80
2019-03-06T15:28:10.660Z,11.70
2019-03-06T15:30:40.744Z,11.50
2019-03-06T15:33:09.367Z,11.40
2019-03-06T15:35:37.965Z,11.20
2019-03-06T15:38:08.138Z,11.00
2019-03-06T15:40:40.439Z,10.90
2019-03-06T15:43:11.882Z,10.80
2019-03-06T15:45:40.822Z,10.70
2019-03-06T15:48:09.511Z,10.70
2019-03-06T15:50:38.081Z,10.60
2019-03-06T15:53:06.692Z,10.60
2019-03-06T15:55:35.219Z,10.50
2019-03-06T15:58:04.043Z,10.40
2019-03-06T16:00:34.489Z,10.40
2019-03-06T16:03:05.652Z,10.30
2019-03-06T16:05:35.560Z,10.20
2019-03-06T16:08:05.457Z,10.10
2019-03-06T16:10:34.120Z,10.00
2019-03-06T16:13:03.825Z,9.90
2019-03-06T16:15:32.831Z,9.80
2019-03-06T16:18:04.202Z,9.70
2019-03-06T16:20:33.092Z,9.60
2019-03-06T16:23:02.029Z,9.50
2019-03-06T16:25:36.662Z,9.30
2019-03-06T16:28:01.286Z,9.20
2019-03-06T16:30:31.046Z,9.00
2019-03-06T16:32:59.717Z,8.90
2019-03-06T16:35:28.721Z,8.80
2019-03-06T16:37:58.353Z,8.70
2019-03-06T16:40:27.563Z,8.50
2019-03-06T16:42:56.167Z,8.40
2019-03-06T16:45:28.995Z,8.30
2019-03-06T16:47:58.145Z,8.20
2019-03-06T16:50:27.352Z,8.10
2019-03-06T16:52:56.314Z,8.00
2019-03-06T16:55:26.308Z,7.90
2019-03-06T16:57:55.845Z,7.80
2019-03-06T17:00:33.408Z,7.70
2019-03-06T17:03:10.073Z,7.60
2019-03-06T17:05:39.179Z,7.50
2019-03-06T17:08:08.847Z,7.40
2019-03-06T17:10:39.007Z,7.30
2019-03-06T17:13:08.308Z,7.30
2019-03-06T17:15:38.032Z,7.20
2019-03-06T17:18:07.465Z,7.10
2019-03-06T17:20:37.024Z,7.00
2019-03-06T17:23:06.404Z,7.00
2019-03-06T17:25:35.373Z,6.90
2019-03-06T17:28:04.393Z,6.90
2019-03-06T17:30:34.940Z,6.80
2019-03-06T17:33:08.187Z,6.70
2019-03-06T17:35:37.781Z,6.70
2019-03-06T17:38:09.288Z,6.70
2019-03-06T17:40:38.023Z,6.60
2019-03-06T17:43:13.993Z,6.60
2019-03-06T17:45:43.280Z,6.50
2019-03-06T17:48:12.316Z,6.50
2019-03-06T17:50:41.089Z,6.50
2019-03-06T17:53:09.980Z,6.50
2019-03-06T17:55:38.517Z,6.40
2019-03-06T17:58:07.517Z,6.40
2019-03-06T18:00:43.823Z,6.30
2019-03-06T18:03:14.079Z,6.30
2019-03-06T18:05:42.977Z,6.30
2019-03-06T18:08:11.682Z,6.30
2019-03-06T18:10:40.286Z,6.20
2019-03-06T18:13:09.311Z,6.20
2019-03-06T18:15:37.837Z,6.20
2019-03-06T18:18:06.411Z,6.20
2019-03-06T18:20:34.984Z,6.20
2019-03-06T18:23:03.507Z,6.20
2019-03-06T18:25:32.202Z,6.10
2019-03-06T18:28:00.722Z,6.10
2019-03-06T18:30:29.270Z,6.10
2019-03-06T18:32:57.960Z,6.10
2019-03-06T18:35:26.837Z,6.00
2019-03-06T18:37:55.816Z,6.00
2019-03-06T18:40:25.781Z,6.00
2019-03-06T18:42:55.079Z,6.00
2019-03-06T18:45:23.839Z,6.00
2019-03-06T18:47:52.379Z,6.00
2019-03-06T18:50:22.933Z,6.00
2019-03-06T18:52:52.118Z,6.00
2019-03-06T18:55:21.302Z,6.00
2019-03-06T18:57:50.283Z,5.90
2019-03-06T19:00:21.068Z,5.90
2019-03-06T19:02:49.892Z,5.90
2019-03-06T19:05:20.281Z,5.90
2019-03-06T19:07:50.064Z,5.80
2019-03-06T19:10:20.802Z,5.80
2019-03-06T19:12:49.404Z,5.80
2019-03-06T19:15:22.786Z,5.70
2019-03-06T19:17:51.495Z,5.70
2019-03-06T19:20:21.387Z,5.70
2019-03-06T19:22:51.871Z,5.70
2019-03-06T19:25:20.725Z,5.60
2019-03-06T19:27:49.985Z,5.60
2019-03-06T19:30:23.003Z,5.60
2019-03-06T19:32:51.748Z,5.60
2019-03-06T19:35:25.838Z,5.60
2019-03-06T19:37:54.453Z,5.60
2019-03-06T19:40:23.418Z,5.50
2019-03-06T19:42:52.016Z,5.60
2019-03-06T19:45:22.138Z,5.60
2019-03-06T19:47:50.940Z,5.50
2019-03-06T19:50:21.268Z,5.60
2019-03-06T19:52:49.797Z,5.60
2019-03-06T19:55:20.360Z,5.50
2019-03-06T19:57:59.655Z,5.60
2019-03-06T20:00:29.977Z,5.50
2019-03-06T20:02:59.435Z,5.60
2019-03-06T20:05:34.698Z,5.60
2019-03-06T20:08:06.580Z,5.50
2019-03-06T20:10:35.395Z,5.50
2019-03-06T20:13:04.303Z,5.50
2019-03-06T20:15:32.910Z,5.50
2019-03-06T20:18:01.484Z,5.50
2019-03-06T20:20:30.021Z,5.40
2019-03-06T20:22:59.127Z,5.40
2019-03-06T20:25:27.751Z,5.40
2019-03-06T20:27:56.281Z,5.40
2019-03-06T20:30:26.074Z,5.30
2019-03-06T20:32:56.974Z,5.30
2019-03-06T20:35:26.481Z,5.30
2019-03-06T20:37:55.618Z,5.30
2019-03-06T20:40:24.490Z,5.30
2019-03-06T20:42:53.035Z,5.20
2019-03-06T20:45:21.663Z,5.20
2019-03-06T20:47:50.194Z,5.20
2019-03-06T20:50:20.172Z,5.20
2019-03-06T20:52:50.311Z,5.20
2019-03-06T20:55:19.098Z,5.10
2019-03-06T20:57:47.637Z,5.10
2019-03-06T21:00:22.576Z,5.10
2019-03-06T21:02:51.446Z,5.10
2019-03-06T21:05:20.424Z,5.10
2019-03-06T21:07:49.024Z,5.10
2019-03-06T21:10:18.910Z,5.10
2019-03-06T21:12:47.512Z,5.10
2019-03-06T21:15:17.798Z,5.10
2019-03-06T21:17:46.598Z,5.10
2019-03-06T21:20:19.229Z,5.10
2019-03-06T21:22:47.827Z,5.10
2019-03-06T21:25:18.809Z,5.00
2019-03-06T21:27:47.495Z,5.10
2019-03-06T21:30:35.560Z,5.10
2019-03-06T21:33:04.158Z,5.00
2019-03-06T21:35:33.222Z,5.10
2019-03-06T21:38:01.727Z,5.10
2019-03-06T21:40:30.477Z,5.00
2019-03-06T21:43:00.370Z,5.10
2019-03-06T21:45:29.117Z,5.00
2019-03-06T21:47:57.836Z,5.10
2019-03-06T21:50:26.510Z,5.10
2019-03-06T21:52:55.042Z,5.10
2019-03-06T21:55:23.582Z,5.00
2019-03-06T21:57:52.128Z,5.00
2019-03-06T22:00:22.141Z,5.10
2019-03-06T22:02:50.650Z,5.00
2019-03-06T22:05:19.553Z,5.00
2019-03-06T22:07:50.316Z,5.00
2019-03-06T22:10:18.582Z,5.10
2019-03-06T22:12:47.132Z,5.00
2019-03-06T22:15:18.065Z,5.00
2019-03-06T22:17:46.598Z,5.00
2019-03-06T22:20:15.989Z,5.00
2019-03-06T22:22:44.505Z,5.00
2019-03-06T22:25:17.653Z,5.00
2019-03-06T22:27:46.301Z,5.00
2019-03-06T22:30:22.373Z,5.00
2019-03-06T22:32:50.524Z,5.00
2019-03-06T22:35:19.502Z,5.00
2019-03-06T22:37:48.285Z,5.00
2019-03-06T22:40:21.039Z,5.00
2019-03-06T22:42:49.658Z,5.00
2019-03-06T22:45:19.739Z,4.90
2019-03-06T22:47:48.411Z,4.90
2019-03-06T22:50:18.384Z,4.90
2019-03-06T22:52:47.099Z,4.90
2019-03-06T22:55:17.340Z,4.90
2019-03-06T22:57:45.871Z,4.80
2019-03-06T23:00:46.254Z,4.80
2019-03-06T23:03:16.217Z,4.80
2019-03-06T23:05:44.810Z,4.70
2019-03-06T23:08:13.426Z,4.70
2019-03-06T23:10:41.974Z,4.70
2019-03-06T23:13:11.013Z,4.70
2019-03-06T23:15:40.127Z,4.60
2019-03-06T23:18:08.696Z,4.60
2019-03-06T23:20:37.219Z,4.60
2019-03-06T23:23:05.979Z,4.60
2019-03-06T23:25:34.492Z,4.60
2019-03-06T23:28:03.049Z,4.60
2019-03-06T23:30:31.772Z,4.60
2019-03-06T23:33:00.250Z,4.60
2019-03-06T23:35:28.804Z,4.60
2019-03-06T23:37:57.376Z,4.60
2019-03-06T23:40:26.065Z,4.50
2019-03-06T23:42:54.589Z,4.50
2019-03-06T23:45:23.625Z,4.50
2019-03-06T23:47:52.518Z,4.60
2019-03-06T23:50:21.186Z,4.60
2019-03-06T23:52:57.123Z,4.60
2019-03-06T23:55:26.932Z,4.50
2019-03-06T23:57:55.961Z,4.50
